createdAt,value
2023-03-30T00:01:35.534Z,5.07
2023-03-30T00:04:03.607Z,4.00
2023-03-30T00:06:31.184Z,5.05
2023-03-30T00:08:59.436Z,3.30
2023-03-30T00:11:27.822Z,4.53
2023-03-30T00:13:55.239Z,4.95
2023-03-30T00:16:23.057Z,8.60
2023-03-30T00:18:50.946Z,3.65
2023-03-30T00:21:20.710Z,4.97
2023-03-30T00:23:48.895Z,6.75
2023-03-30T00:26:17.498Z,5.90
2023-03-30T00:28:45.292Z,5.32
2023-03-30T00:31:13.522Z,5.07
2023-03-30T00:33:46.645Z,6.25
2023-03-30T00:36:16.228Z,6.57
2023-03-30T00:38:45.665Z,2.72
2023-03-30T00:41:13.598Z,5.15
2023-03-30T00:44:01.620Z,4.30
2023-03-30T00:46:31.251Z,3.67
2023-03-30T00:49:04.140Z,3.90
2023-03-30T00:51:37.177Z,6.78
2023-03-30T00:54:09.600Z,6.62
2023-03-30T00:56:37.622Z,5.40
2023-03-30T00:59:05.724Z,5.43
2023-03-30T01:01:38.629Z,6.45
2023-03-30T01:04:08.645Z,3.78
2023-03-30T01:06:36.892Z,5.47
2023-03-30T01:09:05.834Z,7.10
2023-03-30T01:11:33.528Z,5.60
2023-03-30T01:14:03.605Z,6.93
2023-03-30T01:16:40.192Z,7.68
2023-03-30T01:19:32.593Z,5.00
2023-03-30T01:22:12.867Z,5.05
2023-03-30T01:25:15.529Z,2.97
2023-03-30T01:28:01.826Z,6.20
2023-03-30T01:30:57.651Z,4.03
2023-03-30T01:34:03.754Z,5.20
2023-03-30T01:36:31.533Z,6.65
2023-03-30T01:39:11.532Z,6.43
2023-03-30T01:42:01.522Z,5.53
2023-03-30T01:44:34.981Z,7.22
2023-03-30T01:47:16.525Z,10.23
2023-03-30T01:49:48.025Z,5.32
2023-03-30T01:52:24.711Z,9.77
2023-03-30T01:54:58.494Z,10.00
2023-03-30T01:57:42.462Z,7.93
2023-03-30T02:00:14.941Z,5.40
2023-03-30T02:02:46.451Z,3.58
2023-03-30T02:05:18.003Z,4.57
2023-03-30T02:07:56.078Z,4.53
2023-03-30T02:10:27.096Z,6.03
2023-03-30T02:12:57.629Z,4.90
2023-03-30T02:15:28.675Z,7.75
2023-03-30T02:17:56.933Z,7.65
2023-03-30T02:20:24.693Z,10.02
2023-03-30T02:22:52.140Z,3.75
2023-03-30T02:25:19.699Z,3.90
2023-03-30T02:27:48.074Z,7.07
2023-03-30T02:30:15.961Z,3.85
2023-03-30T02:32:46.492Z,4.72
2023-03-30T02:35:34.982Z,7.75
2023-03-30T02:38:44.165Z,6.55
2023-03-30T02:41:37.889Z,3.58
2023-03-30T02:44:14.775Z,10.90
2023-03-30T02:46:58.140Z,6.85
2023-03-30T02:49:43.098Z,8.68
2023-03-30T02:52:33.775Z,5.82
2023-03-30T02:55:10.732Z,6.20
2023-03-30T02:57:55.477Z,6.15
2023-03-30T03:00:32.428Z,4.82
2023-03-30T03:03:08.580Z,3.20
2023-03-30T03:05:37.135Z,4.60
2023-03-30T03:08:06.096Z,9.25
2023-03-30T03:10:36.461Z,20.25
2023-03-30T03:13:04.053Z,5.60
2023-03-30T03:15:32.229Z,3.78
2023-03-30T03:18:00.978Z,5.25
2023-03-30T03:20:30.666Z,5.05
2023-03-30T03:22:58.632Z,3.90
2023-03-30T03:25:26.280Z,2.65
2023-03-30T03:27:54.100Z,3.15
2023-03-30T03:30:21.878Z,5.53
2023-03-30T03:32:50.944Z,3.95
2023-03-30T03:35:18.639Z,8.27
2023-03-30T03:37:46.455Z,4.93
2023-03-30T03:40:14.769Z,5.37
2023-03-30T03:42:42.548Z,4.00
2023-03-30T03:45:11.370Z,5.05
2023-03-30T03:47:39.669Z,3.17
2023-03-30T03:50:09.905Z,3.83
2023-03-30T03:52:37.736Z,2.62
2023-03-30T03:55:05.624Z,8.98
2023-03-30T03:57:33.144Z,4.12
2023-03-30T04:00:00.807Z,7.87
2023-03-30T04:02:28.487Z,9.82
2023-03-30T04:04:57.633Z,4.62
2023-03-30T04:07:25.610Z,4.00
2023-03-30T04:09:53.086Z,4.62
2023-03-30T04:12:20.921Z,3.85
2023-03-30T04:14:49.864Z,6.53
2023-03-30T04:17:17.350Z,3.80
2023-03-30T04:19:46.297Z,7.97
2023-03-30T04:22:14.636Z,4.95
2023-03-30T04:24:44.739Z,4.68
2023-03-30T04:27:16.989Z,2.40
2023-03-30T04:29:45.008Z,4.30
2023-03-30T04:32:12.862Z,7.68
2023-03-30T04:34:42.722Z,9.65
2023-03-30T04:37:10.980Z,11.88
2023-03-30T04:39:39.418Z,5.12
2023-03-30T04:42:07.505Z,4.43
2023-03-30T04:44:35.576Z,10.80
2023-03-30T04:47:03.672Z,4.85
2023-03-30T04:49:31.979Z,5.65
2023-03-30T04:52:00.204Z,7.25
2023-03-30T04:54:28.121Z,6.70
2023-03-30T04:56:59.409Z,5.90
2023-03-30T04:59:27.006Z,2.62
2023-03-30T05:01:55.267Z,2.40
2023-03-30T05:04:23.112Z,5.22
2023-03-30T05:06:51.057Z,4.22
2023-03-30T05:09:21.576Z,12.20
2023-03-30T05:11:50.409Z,5.62
2023-03-30T05:14:18.036Z,13.43
2023-03-30T05:16:46.087Z,8.70
2023-03-30T05:19:14.419Z,5.03
2023-03-30T05:21:42.361Z,6.22
2023-03-30T05:24:12.829Z,8.15
2023-03-30T05:26:41.522Z,6.05
2023-03-30T05:29:10.113Z,2.97
2023-03-30T05:31:37.908Z,7.18
2023-03-30T05:34:06.682Z,3.78
2023-03-30T05:36:35.481Z,2.53
2023-03-30T05:39:05.170Z,5.28
2023-03-30T05:41:34.526Z,4.55
2023-03-30T05:44:01.958Z,9.75
2023-03-30T05:46:29.753Z,2.55
2023-03-30T05:48:57.676Z,5.57
2023-03-30T05:51:25.732Z,11.02
2023-03-30T05:53:53.822Z,10.32
2023-03-30T05:56:23.620Z,8.65
2023-03-30T05:58:51.715Z,3.87
2023-03-30T06:01:20.892Z,3.92
2023-03-30T06:03:49.185Z,5.12
2023-03-30T06:06:17.037Z,9.45
2023-03-30T06:08:46.562Z,7.82
2023-03-30T06:11:14.866Z,3.03
2023-03-30T06:13:43.072Z,7.37
2023-03-30T06:16:10.864Z,4.57
2023-03-30T06:18:39.002Z,4.68
2023-03-30T06:21:08.375Z,6.20
2023-03-30T06:23:37.461Z,8.13
2023-03-30T06:26:07.811Z,2.20
2023-03-30T06:28:36.010Z,5.05
2023-03-30T06:31:10.899Z,19.48
2023-03-30T06:36:13.612Z,6.68
2023-03-30T06:38:43.639Z,1.65
2023-03-30T06:41:12.710Z,2.37
2023-03-30T06:43:41.761Z,4.50
2023-03-30T06:46:12.470Z,6.60
2023-03-30T06:48:42.760Z,5.40
2023-03-30T06:51:14.530Z,5.87
2023-03-30T06:53:42.114Z,5.45
2023-03-30T06:56:09.793Z,6.35
2023-03-30T06:58:39.076Z,18.12
2023-03-30T07:01:14.140Z,6.85
2023-03-30T07:03:42.543Z,12.43
2023-03-30T07:06:10.944Z,8.60
2023-03-30T07:08:38.742Z,7.35
2023-03-30T07:11:07.250Z,5.37
2023-03-30T07:13:35.212Z,6.40
2023-03-30T07:16:03.383Z,4.55
2023-03-30T07:18:31.918Z,7.18
2023-03-30T07:20:59.526Z,6.70
2023-03-30T07:23:27.249Z,6.03
2023-03-30T07:25:55.031Z,22.62
2023-03-30T07:28:22.890Z,4.70
2023-03-30T07:30:50.808Z,12.70
2023-03-30T07:33:19.322Z,6.25
2023-03-30T07:35:48.018Z,6.32
2023-03-30T07:38:16.066Z,5.20
2023-03-30T07:40:44.096Z,6.22
2023-03-30T07:43:11.805Z,5.60
2023-03-30T07:45:39.450Z,7.47
2023-03-30T07:48:07.769Z,5.53
2023-03-30T07:50:35.620Z,3.83
2023-03-30T07:53:03.395Z,22.48
2023-03-30T07:55:31.274Z,8.15
2023-03-30T07:57:59.562Z,4.10
2023-03-30T08:00:26.968Z,4.95
2023-03-30T08:02:58.269Z,11.70
2023-03-30T08:05:25.961Z,11.15
2023-03-30T08:07:53.851Z,7.22
2023-03-30T08:10:22.441Z,6.10
2023-03-30T08:12:49.857Z,4.85
2023-03-30T08:15:17.237Z,5.78
2023-03-30T08:17:45.165Z,6.32
2023-03-30T08:20:12.976Z,8.55
2023-03-30T08:22:40.376Z,8.68
2023-03-30T08:25:09.290Z,6.32
2023-03-30T08:27:36.757Z,10.25
2023-03-30T08:30:05.472Z,12.80
2023-03-30T08:32:33.316Z,8.27
2023-03-30T08:35:00.909Z,6.87
2023-03-30T08:37:28.704Z,5.40
2023-03-30T08:39:56.394Z,7.50
2023-03-30T08:42:53.028Z,9.45
2023-03-30T08:45:20.735Z,11.30
2023-03-30T08:47:50.126Z,9.88
2023-03-30T08:50:21.311Z,9.50
2023-03-30T08:52:50.788Z,12.82
2023-03-30T08:55:33.094Z,7.50
2023-03-30T08:58:19.107Z,10.57
2023-03-30T09:01:10.561Z,12.55
2023-03-30T09:03:45.120Z,6.97
2023-03-30T09:06:31.222Z,10.77
2023-03-30T09:08:58.939Z,16.05
2023-03-30T09:11:34.821Z,7.57
2023-03-30T09:14:06.593Z,20.73
2023-03-30T09:16:51.815Z,16.77
2023-03-30T09:19:25.156Z,10.05
2023-03-30T09:21:53.901Z,13.75
2023-03-30T09:24:26.185Z,10.40
2023-03-30T09:27:08.237Z,12.63
2023-03-30T09:29:47.348Z,10.95
2023-03-30T09:32:29.925Z,10.93
2023-03-30T09:35:05.199Z,10.65
2023-03-30T09:37:32.720Z,10.23
2023-03-30T09:40:09.405Z,9.43
2023-03-30T09:42:52.756Z,8.65
2023-03-30T09:45:23.613Z,8.98
2023-03-30T09:47:51.065Z,8.93
2023-03-30T09:50:24.840Z,11.15
2023-03-30T09:53:07.335Z,10.95
2023-03-30T09:55:36.715Z,7.25
2023-03-30T09:58:17.433Z,10.68
2023-03-30T10:00:45.801Z,11.90
2023-03-30T10:03:21.049Z,8.13
2023-03-30T10:06:02.106Z,11.18
2023-03-30T10:08:30.021Z,14.30
2023-03-30T10:10:58.439Z,9.07
2023-03-30T10:13:34.989Z,17.95
2023-03-30T10:16:08.670Z,11.25
2023-03-30T10:18:45.573Z,15.07
2023-03-30T10:21:13.122Z,18.62
2023-03-30T10:23:42.744Z,14.25
2023-03-30T10:26:19.833Z,11.75
2023-03-30T10:28:55.860Z,15.60
2023-03-30T10:31:27.131Z,12.93
2023-03-30T10:33:59.894Z,10.80
2023-03-30T10:36:33.938Z,15.32
2023-03-30T10:39:14.390Z,11.80
2023-03-30T10:41:42.373Z,18.48
2023-03-30T10:44:31.047Z,10.48
2023-03-30T10:47:30.262Z,13.15
2023-03-30T10:50:07.041Z,12.60
2023-03-30T10:52:58.955Z,10.38
2023-03-30T10:55:31.731Z,17.48
2023-03-30T10:58:27.253Z,9.77
2023-03-30T11:01:16.520Z,10.25
2023-03-30T11:03:47.741Z,12.00
2023-03-30T11:06:26.160Z,12.82
2023-03-30T11:08:55.666Z,13.80
2023-03-30T11:11:32.570Z,15.55
2023-03-30T11:14:02.251Z,12.70
2023-03-30T11:16:38.941Z,10.88
2023-03-30T11:19:16.337Z,9.18
2023-03-30T11:21:56.715Z,10.15
2023-03-30T11:24:24.936Z,8.15
2023-03-30T11:26:55.653Z,8.38
2023-03-30T11:29:49.070Z,12.15
2023-03-30T11:32:47.561Z,11.18
2023-03-30T11:35:24.538Z,12.80
2023-03-30T11:37:58.007Z,7.57
2023-03-30T11:40:27.911Z,7.68
2023-03-30T11:42:55.813Z,7.85
2023-03-30T11:45:42.548Z,8.15
2023-03-30T11:48:19.333Z,8.27
2023-03-30T11:51:13.739Z,7.75
2023-03-30T11:54:13.906Z,8.93
2023-03-30T11:56:48.818Z,10.48
2023-03-30T12:02:17.422Z,6.32
2023-03-30T12:04:48.976Z,4.78
2023-03-30T12:07:44.518Z,7.87
2023-03-30T12:10:19.270Z,6.57
2023-03-30T12:12:49.430Z,6.15
2023-03-30T12:15:23.383Z,6.62
2023-03-30T12:18:13.828Z,6.72
2023-03-30T12:20:46.028Z,9.95
2023-03-30T12:23:34.277Z,9.93
2023-03-30T12:26:31.329Z,7.12
2023-03-30T12:29:56.552Z,6.97
2023-03-30T12:31:59.977Z,5.82
2023-03-30T12:34:29.906Z,5.50
2023-03-30T12:37:28.563Z,8.27
2023-03-30T12:40:00.418Z,8.18
2023-03-30T12:42:39.727Z,8.23
2023-03-30T12:45:22.844Z,6.05
2023-03-30T12:48:14.718Z,8.98
2023-03-30T12:50:45.478Z,7.22
2023-03-30T12:53:34.577Z,7.25
2023-03-30T12:56:08.861Z,12.00
2023-03-30T12:58:39.237Z,6.97
2023-03-30T13:01:35.894Z,10.85
2023-03-30T13:04:09.375Z,4.62
2023-03-30T13:06:40.568Z,7.18
2023-03-30T13:09:08.095Z,9.35
2023-03-30T13:12:04.833Z,10.30
2023-03-30T13:14:34.152Z,7.10
2023-03-30T13:17:01.597Z,8.52
2023-03-30T13:19:49.239Z,6.65
2023-03-30T13:22:16.796Z,6.22
2023-03-30T13:25:03.859Z,6.70
2023-03-30T13:27:36.532Z,26.65
2023-03-30T13:30:07.780Z,5.55
2023-03-30T13:33:15.666Z,10.45
2023-03-30T13:35:52.346Z,7.95
2023-03-30T13:38:29.141Z,7.12
2023-03-30T13:41:08.329Z,25.30
2023-03-30T13:44:01.176Z,6.32
2023-03-30T13:47:00.486Z,9.05
2023-03-30T13:49:36.938Z,7.45
2023-03-30T13:52:06.607Z,5.90
2023-03-30T13:54:34.954Z,7.35
2023-03-30T13:57:15.022Z,7.65
2023-03-30T13:59:46.366Z,8.85
2023-03-30T14:02:16.399Z,7.20
2023-03-30T14:04:49.140Z,7.80
2023-03-30T14:07:21.041Z,9.80
2023-03-30T14:10:09.416Z,16.73
2023-03-30T14:12:39.471Z,11.50
2023-03-30T14:15:27.903Z,5.28
2023-03-30T14:17:58.319Z,6.90
2023-03-30T14:20:39.142Z,6.20
2023-03-30T14:23:06.992Z,14.75
2023-03-30T14:25:40.684Z,10.60
2023-03-30T14:28:16.999Z,9.10
2023-03-30T14:30:52.759Z,6.90
2023-03-30T14:33:20.587Z,6.57
2023-03-30T14:35:50.446Z,15.60
2023-03-30T14:38:24.216Z,8.27
2023-03-30T14:40:52.962Z,10.82
2023-03-30T14:43:25.986Z,7.53
2023-03-30T14:45:54.681Z,8.75
2023-03-30T14:48:33.494Z,7.47
2023-03-30T14:51:02.603Z,6.45
2023-03-30T14:53:30.989Z,8.75
2023-03-30T14:55:59.703Z,8.48
2023-03-30T14:58:31.223Z,7.55
2023-03-30T15:01:06.156Z,9.23
2023-03-30T15:03:37.258Z,10.70
2023-03-30T15:06:06.960Z,11.48
2023-03-30T15:08:39.491Z,14.55
2023-03-30T15:11:09.538Z,15.35
2023-03-30T15:13:42.894Z,11.98
2023-03-30T15:16:15.740Z,11.23
2023-03-30T15:18:43.616Z,15.55
2023-03-30T15:21:12.732Z,15.18
2023-03-30T15:23:42.500Z,8.40
2023-03-30T15:26:11.458Z,10.27
2023-03-30T15:28:51.193Z,9.25
2023-03-30T15:31:19.816Z,10.95
2023-03-30T15:33:51.957Z,9.63
2023-03-30T15:36:36.459Z,19.37
2023-03-30T15:39:18.571Z,9.63
2023-03-30T15:41:47.563Z,12.82
2023-03-30T15:44:19.824Z,14.90
2023-03-30T15:46:52.816Z,17.37
2023-03-30T15:49:24.551Z,14.07
2023-03-30T15:51:55.435Z,6.35
2023-03-30T15:54:27.179Z,8.07
2023-03-30T15:56:59.728Z,11.90
2023-03-30T16:00:04.893Z,15.25
2023-03-30T16:02:46.670Z,8.90
2023-03-30T16:05:20.465Z,12.90
2023-03-30T16:07:48.511Z,11.35
2023-03-30T16:10:27.243Z,18.55
2023-03-30T16:12:56.164Z,15.00
2023-03-30T16:15:26.081Z,9.77
2023-03-30T16:17:53.836Z,9.43
2023-03-30T16:20:26.737Z,11.45
2023-03-30T16:22:54.487Z,12.60
2023-03-30T16:25:33.980Z,18.67
2023-03-30T16:28:15.125Z,11.02
2023-03-30T16:30:45.892Z,16.80
2023-03-30T16:33:13.460Z,13.43
2023-03-30T16:35:41.161Z,12.65
2023-03-30T16:38:13.704Z,20.42
2023-03-30T16:40:43.211Z,19.35
2023-03-30T16:43:11.642Z,31.52
2023-03-30T16:45:39.297Z,28.38
2023-03-30T16:48:06.842Z,26.73
2023-03-30T16:50:54.024Z,22.42
2023-03-30T16:53:21.492Z,13.35
2023-03-30T16:55:49.497Z,24.42
2023-03-30T16:58:17.261Z,16.75
2023-03-30T17:00:47.403Z,12.60
2023-03-30T17:03:15.658Z,11.15
2023-03-30T17:05:48.260Z,13.70
2023-03-30T17:08:21.928Z,21.10
2023-03-30T17:10:50.614Z,16.40
2023-03-30T17:13:18.805Z,16.67
2023-03-30T17:15:46.571Z,15.45
2023-03-30T17:18:16.433Z,19.20
2023-03-30T17:20:48.276Z,16.40
2023-03-30T17:23:19.040Z,23.20
2023-03-30T17:25:49.047Z,19.15
2023-03-30T17:28:23.089Z,15.13
2023-03-30T17:30:52.904Z,21.83
2023-03-30T17:33:20.741Z,23.23
2023-03-30T17:35:57.632Z,25.73
2023-03-30T17:38:25.598Z,16.30
2023-03-30T17:40:53.000Z,20.17
2023-03-30T17:43:20.763Z,20.70
2023-03-30T17:45:48.777Z,12.05
2023-03-30T17:48:21.641Z,17.58
2023-03-30T17:50:50.672Z,25.00
2023-03-30T17:53:20.201Z,22.85
2023-03-30T17:55:50.022Z,11.98
2023-03-30T17:58:25.154Z,18.40
2023-03-30T18:00:53.869Z,15.50
2023-03-30T18:03:22.984Z,12.60
2023-03-30T18:05:50.838Z,15.07
2023-03-30T18:08:22.370Z,15.50
2023-03-30T18:10:58.181Z,13.25
2023-03-30T18:13:27.065Z,12.65
2023-03-30T18:15:55.960Z,13.70
2023-03-30T18:18:26.323Z,15.02
2023-03-30T18:20:55.728Z,13.90
2023-03-30T18:23:23.921Z,17.60
2023-03-30T18:25:51.723Z,20.05
2023-03-30T18:28:21.504Z,15.68
2023-03-30T18:30:49.572Z,13.05
2023-03-30T18:33:17.069Z,20.90
2023-03-30T18:35:46.374Z,15.43
2023-03-30T18:38:16.872Z,15.77
2023-03-30T18:40:57.924Z,12.57
2023-03-30T18:43:26.651Z,8.82
2023-03-30T18:45:58.524Z,13.18
2023-03-30T18:48:27.844Z,18.77
2023-03-30T18:50:55.685Z,18.60
2023-03-30T18:53:28.415Z,15.38
2023-03-30T18:55:58.635Z,11.43
2023-03-30T18:58:31.298Z,23.95
2023-03-30T19:00:59.664Z,15.50
2023-03-30T19:03:28.437Z,17.92
2023-03-30T19:05:56.039Z,11.75
2023-03-30T19:08:24.996Z,22.25
2023-03-30T19:10:55.450Z,25.35
2023-03-30T19:13:24.069Z,15.05
2023-03-30T19:15:52.644Z,19.02
2023-03-30T19:18:20.486Z,16.83
2023-03-30T19:20:50.064Z,17.35
2023-03-30T19:23:19.093Z,12.48
2023-03-30T19:25:46.578Z,9.80
2023-03-30T19:28:15.296Z,13.43
2023-03-30T19:30:43.651Z,13.15
2023-03-30T19:33:16.266Z,16.08
2023-03-30T19:35:45.131Z,15.90
2023-03-30T19:38:13.315Z,15.63
2023-03-30T19:40:41.342Z,15.90
2023-03-30T19:43:09.788Z,17.52
2023-03-30T19:45:37.419Z,17.80
2023-03-30T19:48:05.213Z,16.40
2023-03-30T19:50:33.001Z,17.05
2023-03-30T19:53:00.839Z,16.15
2023-03-30T19:55:28.494Z,13.88
2023-03-30T19:57:56.208Z,12.50
2023-03-30T20:00:23.836Z,23.10
2023-03-30T20:02:53.991Z,13.45
2023-03-30T20:05:23.828Z,18.98
2023-03-30T20:07:51.769Z,16.40
2023-03-30T20:10:22.469Z,15.40
2023-03-30T20:12:51.276Z,13.07
2023-03-30T20:15:20.243Z,16.52
2023-03-30T20:17:48.110Z,11.23
2023-03-30T20:20:22.655Z,14.38
2023-03-30T20:22:53.429Z,16.45
2023-03-30T20:25:21.718Z,16.70
2023-03-30T20:27:49.451Z,12.80
2023-03-30T20:30:17.428Z,10.25
2023-03-30T20:32:48.427Z,18.70
2023-03-30T20:35:25.676Z,9.52
2023-03-30T20:37:53.234Z,14.27
2023-03-30T20:40:21.131Z,13.90
2023-03-30T20:42:48.909Z,13.05
2023-03-30T20:45:17.696Z,9.30
2023-03-30T20:47:50.060Z,9.23
2023-03-30T20:50:18.090Z,13.88
2023-03-30T20:52:45.529Z,4.80
2023-03-30T20:55:13.136Z,5.82
2023-03-30T20:57:40.822Z,8.65
2023-03-30T21:00:09.472Z,8.23
2023-03-30T21:02:37.078Z,5.45
2023-03-30T21:05:05.072Z,5.90
2023-03-30T21:07:33.793Z,8.35
2023-03-30T21:10:01.213Z,8.13
2023-03-30T21:12:29.002Z,6.80
2023-03-30T21:14:56.571Z,7.53
2023-03-30T21:17:24.011Z,12.95
2023-03-30T21:19:51.724Z,7.57
2023-03-30T21:22:19.181Z,5.50
2023-03-30T21:24:46.614Z,7.65
2023-03-30T21:27:14.454Z,5.80
2023-03-30T21:29:41.916Z,9.18
2023-03-30T21:32:09.335Z,7.15
2023-03-30T21:34:37.025Z,5.82
2023-03-30T21:37:04.469Z,7.55
2023-03-30T21:39:31.960Z,5.50
2023-03-30T21:41:59.674Z,6.50
2023-03-30T21:44:27.183Z,7.43
2023-03-30T21:46:54.684Z,8.77
2023-03-30T21:49:22.583Z,6.28
2023-03-30T21:51:50.340Z,3.62
2023-03-30T21:54:19.308Z,4.05
2023-03-30T21:56:47.198Z,5.50
2023-03-30T21:59:14.613Z,5.07
2023-03-30T22:01:42.327Z,7.95
2023-03-30T22:04:10.596Z,5.75
2023-03-30T22:06:38.164Z,4.28
2023-03-30T22:09:06.012Z,4.87
2023-03-30T22:11:33.707Z,3.10
2023-03-30T22:14:01.288Z,8.20
2023-03-30T22:16:33.402Z,3.28
2023-03-30T22:19:01.898Z,4.47
2023-03-30T22:21:33.923Z,5.90
2023-03-30T22:24:02.908Z,5.05
2023-03-30T22:26:30.425Z,3.45
2023-03-30T22:28:57.982Z,5.85
2023-03-30T22:31:26.674Z,7.68
2023-03-30T22:33:55.021Z,5.57
2023-03-30T22:36:25.381Z,6.90
2023-03-30T22:38:53.055Z,5.93
2023-03-30T22:41:23.845Z,7.55
2023-03-30T22:43:52.801Z,5.18
2023-03-30T22:46:21.392Z,4.35
2023-03-30T22:48:57.814Z,4.10
2023-03-30T22:51:28.623Z,8.40
2023-03-30T22:54:00.313Z,5.07
2023-03-30T22:56:29.591Z,4.47
2023-03-30T22:58:57.485Z,7.82
2023-03-30T23:01:25.020Z,5.12
2023-03-30T23:03:53.486Z,5.28
2023-03-30T23:06:21.502Z,6.57
2023-03-30T23:08:49.210Z,4.32
2023-03-30T23:11:17.090Z,9.82
2023-03-30T23:13:44.637Z,6.25
2023-03-30T23:16:12.040Z,5.87
2023-03-30T23:18:39.851Z,5.18
2023-03-30T23:21:08.318Z,4.45
2023-03-30T23:23:36.447Z,3.03
2023-03-30T23:26:08.760Z,7.18
2023-03-30T23:28:38.609Z,6.25
2023-03-30T23:31:12.329Z,6.28
2023-03-30T23:33:43.331Z,4.87
2023-03-30T23:36:16.960Z,9.63
2023-03-30T23:38:45.434Z,2.45
2023-03-30T23:41:14.988Z,3.90
2023-03-30T23:43:42.870Z,3.42
2023-03-30T23:46:10.723Z,3.28
2023-03-30T23:48:39.210Z,4.57
2023-03-30T23:51:07.023Z,6.15
2023-03-30T23:53:34.554Z,6.18
2023-03-30T23:56:06.400Z,3.62
2023-03-30T23:58:34.200Z,3.75
